createdAt,value
2024-03-17T00:00:44.198Z,25.80
2024-03-17T00:01:44.553Z,24.70
2024-03-17T00:02:44.935Z,27.10
2024-03-17T00:03:45.257Z,26.50
2024-03-17T00:04:45.619Z,28.30
2024-03-17T00:05:45.980Z,28.20
2024-03-17T00:06:46.363Z,21.50
2024-03-17T00:07:46.744Z,28.20
2024-03-17T00:08:47.091Z,24.50
2024-03-17T00:09:47.447Z,23.90
2024-03-17T00:10:47.782Z,24.80
2024-03-17T00:11:48.189Z,22.10
2024-03-17T00:12:48.507Z,27.20
2024-03-17T00:13:48.875Z,26.70
2024-03-17T00:14:49.225Z,27.10
2024-03-17T00:15:49.584Z,25.20
2024-03-17T00:16:49.941Z,26.50
2024-03-17T00:17:50.328Z,24.00
2024-03-17T00:18:50.641Z,25.30
2024-03-17T00:19:51.038Z,24.30
2024-03-17T00:20:51.380Z,25.10
2024-03-17T00:21:51.763Z,25.70
2024-03-17T00:22:52.110Z,28.90
2024-03-17T00:23:52.422Z,32.90
2024-03-17T00:24:52.778Z,27.90
2024-03-17T00:25:53.118Z,25.60
2024-03-17T00:26:53.615Z,29.90
2024-03-17T00:27:53.883Z,21.70
2024-03-17T00:28:54.221Z,24.20
2024-03-17T00:29:54.936Z,33.70
2024-03-17T00:30:54.981Z,33.80
2024-03-17T00:31:55.370Z,25.80
2024-03-17T00:32:55.792Z,24.00
2024-03-17T00:33:56.176Z,32.30
2024-03-17T00:34:56.549Z,29.10
2024-03-17T00:35:56.960Z,28.10
2024-03-17T00:36:57.387Z,27.90
2024-03-17T00:37:57.735Z,27.40
2024-03-17T00:38:58.084Z,25.40
2024-03-17T00:39:58.505Z,26.00
2024-03-17T00:40:58.802Z,28.70
2024-03-17T00:41:59.144Z,24.70
2024-03-17T00:42:59.477Z,29.40
2024-03-17T00:43:59.804Z,29.80
2024-03-17T00:45:00.210Z,26.40
2024-03-17T00:46:00.570Z,26.00
2024-03-17T00:47:00.973Z,22.40
2024-03-17T00:48:01.327Z,26.30
2024-03-17T00:49:01.672Z,28.70
2024-03-17T00:50:02.034Z,22.00
2024-03-17T00:51:02.369Z,28.50
2024-03-17T00:52:02.749Z,30.20
2024-03-17T00:53:03.160Z,27.60
2024-03-17T00:54:03.420Z,31.20
2024-03-17T00:55:03.826Z,26.20
2024-03-17T00:56:04.203Z,27.00
2024-03-17T00:57:04.611Z,27.20
2024-03-17T00:58:04.994Z,27.10
2024-03-17T00:59:05.303Z,23.90
2024-03-17T01:00:05.712Z,26.30
2024-03-17T01:01:06.125Z,25.90
2024-03-17T01:02:06.456Z,25.90
2024-03-17T01:03:06.811Z,26.40
2024-03-17T01:04:07.172Z,29.30
2024-03-17T01:05:07.529Z,23.20
2024-03-17T01:06:07.893Z,24.30
2024-03-17T01:07:08.272Z,29.50
2024-03-17T01:08:08.633Z,30.30
2024-03-17T01:09:08.980Z,26.30
2024-03-17T01:10:09.404Z,28.50
2024-03-17T01:11:09.769Z,27.80
2024-03-17T01:12:10.167Z,27.70
2024-03-17T01:13:10.405Z,30.00
2024-03-17T01:14:10.791Z,26.80
2024-03-17T01:15:11.153Z,25.90
2024-03-17T01:16:11.506Z,27.50
2024-03-17T01:17:11.898Z,25.20
2024-03-17T01:18:12.306Z,29.00
2024-03-17T01:19:12.702Z,26.20
2024-03-17T01:20:13.112Z,25.90
2024-03-17T01:21:13.474Z,28.80
2024-03-17T01:22:13.884Z,27.70
2024-03-17T01:23:14.217Z,23.90
2024-03-17T01:24:14.576Z,29.30
2024-03-17T01:25:14.925Z,28.70
2024-03-17T01:26:15.958Z,26.50
2024-03-17T01:27:15.658Z,32.90
2024-03-17T01:28:16.018Z,24.60
2024-03-17T01:29:16.367Z,23.60
2024-03-17T01:30:16.731Z,26.50
2024-03-17T01:31:17.069Z,31.90
2024-03-17T01:32:17.455Z,31.30
2024-03-17T01:33:17.816Z,30.60
2024-03-17T01:34:18.151Z,21.80
2024-03-17T01:35:18.503Z,29.20
2024-03-17T01:36:18.864Z,27.70
2024-03-17T01:37:19.212Z,27.80
2024-03-17T01:38:19.570Z,21.60
2024-03-17T01:39:19.922Z,24.70
2024-03-17T01:40:20.327Z,25.90
2024-03-17T01:41:20.663Z,25.80
2024-03-17T01:42:21.021Z,26.20
2024-03-17T01:43:21.372Z,25.00
2024-03-17T01:44:21.752Z,24.10
2024-03-17T01:45:22.129Z,25.00
2024-03-17T01:46:22.481Z,27.60
2024-03-17T01:47:22.839Z,26.80
2024-03-17T01:48:23.213Z,22.70
2024-03-17T01:49:23.569Z,24.90
2024-03-17T01:50:23.911Z,24.80
2024-03-17T01:51:24.267Z,27.70
2024-03-17T01:52:24.632Z,18.50
2024-03-17T01:53:24.996Z,26.20
2024-03-17T01:54:25.352Z,27.30
2024-03-17T01:55:25.712Z,27.70
2024-03-17T01:56:26.083Z,28.80
2024-03-17T01:57:26.470Z,31.10
2024-03-17T01:58:26.838Z,71.70
2024-03-17T01:59:27.201Z,26.10
2024-03-17T02:00:27.560Z,44.50
2024-03-17T02:01:27.914Z,33.20
2024-03-17T02:02:28.279Z,30.40
2024-03-17T02:03:28.656Z,32.20
2024-03-17T02:04:29.032Z,27.70
2024-03-17T02:05:29.435Z,25.70
2024-03-17T02:06:29.771Z,25.60
2024-03-17T02:07:30.145Z,22.50
2024-03-17T02:08:30.495Z,25.50
2024-03-17T02:09:30.850Z,24.10
2024-03-17T02:10:31.197Z,21.60
2024-03-17T02:11:31.558Z,21.60
2024-03-17T02:12:31.936Z,25.90
2024-03-17T02:13:32.329Z,21.80
2024-03-17T02:14:32.698Z,26.50
2024-03-17T02:15:33.077Z,22.30
2024-03-17T02:16:33.426Z,24.10
2024-03-17T02:17:33.793Z,23.90
2024-03-17T02:18:34.163Z,33.80
2024-03-17T02:19:35.500Z,25.30
2024-03-17T02:20:34.845Z,27.90
2024-03-17T02:21:35.197Z,25.50
2024-03-17T02:22:35.571Z,25.40
2024-03-17T02:23:39.375Z,21.10
2024-03-17T02:24:36.309Z,22.70
2024-03-17T02:25:36.679Z,21.70
2024-03-17T02:26:37.026Z,19.50
2024-03-17T02:27:37.500Z,21.50
2024-03-17T02:28:37.798Z,26.30
2024-03-17T02:29:38.176Z,21.70
2024-03-17T02:30:38.541Z,28.20
2024-03-17T02:31:38.904Z,26.00
2024-03-17T02:32:39.284Z,26.10
2024-03-17T02:33:39.609Z,26.30
2024-03-17T02:34:39.952Z,25.20
2024-03-17T02:35:40.309Z,22.30
2024-03-17T02:36:40.676Z,30.60
2024-03-17T02:37:41.067Z,25.20
2024-03-17T02:38:41.433Z,20.30
2024-03-17T02:39:41.808Z,21.20
2024-03-17T02:40:42.160Z,24.80
2024-03-17T02:41:42.535Z,23.70
2024-03-17T02:42:42.901Z,27.30
2024-03-17T02:43:43.277Z,23.60
2024-03-17T02:44:43.629Z,26.50
2024-03-17T02:45:43.986Z,26.90
2024-03-17T02:46:44.347Z,28.30
2024-03-17T02:47:44.724Z,28.80
2024-03-17T02:48:45.184Z,23.70
2024-03-17T02:49:45.485Z,28.10
2024-03-17T02:50:45.861Z,27.80
2024-03-17T02:51:46.221Z,19.60
2024-03-17T02:52:46.590Z,24.10
2024-03-17T02:53:46.942Z,25.50
2024-03-17T02:55:47.723Z,24.90
2024-03-17T02:56:48.072Z,24.70
2024-03-17T02:57:48.449Z,24.30
2024-03-17T02:58:48.792Z,33.60
2024-03-17T02:59:49.148Z,20.60
2024-03-17T03:00:49.520Z,26.00
2024-03-17T03:01:49.905Z,26.20
2024-03-17T03:02:50.281Z,26.40
2024-03-17T03:03:50.637Z,24.30
2024-03-17T03:04:51.011Z,23.10
2024-03-17T03:05:51.385Z,25.80
2024-03-17T03:06:51.778Z,26.60
2024-03-17T03:07:52.130Z,31.40
2024-03-17T03:08:52.499Z,25.00
2024-03-17T03:09:52.872Z,24.60
2024-03-17T03:10:53.243Z,30.40
2024-03-17T03:11:53.634Z,23.00
2024-03-17T03:12:54.011Z,25.70
2024-03-17T03:13:54.383Z,21.70
2024-03-17T03:14:54.751Z,24.90
2024-03-17T03:15:55.123Z,26.00
2024-03-17T03:16:55.511Z,24.90
2024-03-17T03:17:55.861Z,25.70
2024-03-17T03:18:56.234Z,24.30
2024-03-17T03:19:56.594Z,23.30
2024-03-17T03:20:56.981Z,31.30
2024-03-17T03:21:57.345Z,22.80
2024-03-17T03:22:57.715Z,26.70
2024-03-17T03:23:58.088Z,26.60
2024-03-17T03:24:58.460Z,25.00
2024-03-17T03:25:58.824Z,28.30
2024-03-17T03:26:59.274Z,23.30
2024-03-17T03:27:59.655Z,27.10
2024-03-17T03:29:00.029Z,22.90
2024-03-17T03:30:00.424Z,26.90
2024-03-17T03:31:00.766Z,30.50
2024-03-17T03:32:01.146Z,24.30
2024-03-17T03:33:03.557Z,31.70
2024-03-17T03:34:01.938Z,29.90
2024-03-17T03:35:02.307Z,26.60
2024-03-17T03:36:02.696Z,28.80
2024-03-17T03:37:03.085Z,25.40
2024-03-17T03:38:03.437Z,22.50
2024-03-17T03:39:03.799Z,28.50
2024-03-17T03:40:04.282Z,25.90
2024-03-17T03:41:04.506Z,25.90
2024-03-17T03:42:04.869Z,26.80
2024-03-17T03:43:05.298Z,27.30
2024-03-17T03:44:05.707Z,27.30
2024-03-17T03:45:06.060Z,23.70
2024-03-17T03:46:06.452Z,29.60
2024-03-17T03:47:06.819Z,26.30
2024-03-17T03:48:07.181Z,24.20
2024-03-17T03:49:07.559Z,30.60
2024-03-17T03:50:07.929Z,31.20
2024-03-17T03:51:08.264Z,28.10
2024-03-17T03:52:08.605Z,23.00
2024-03-17T03:53:08.960Z,33.40
2024-03-17T03:54:09.317Z,25.70
2024-03-17T03:55:10.627Z,26.60
2024-03-17T03:56:10.153Z,24.70
2024-03-17T03:57:10.396Z,25.50
2024-03-17T03:58:10.817Z,30.80
2024-03-17T03:59:12.054Z,31.70
2024-03-17T04:00:11.497Z,27.30
2024-03-17T04:01:12.782Z,27.40
2024-03-17T04:02:12.266Z,32.70
2024-03-17T04:03:12.639Z,26.10
2024-03-17T04:04:13.002Z,29.40
2024-03-17T04:05:13.368Z,24.50
2024-03-17T04:06:14.518Z,37.00
2024-03-17T04:07:14.113Z,35.00
2024-03-17T04:08:21.498Z,34.60
2024-03-17T04:09:14.784Z,35.70
2024-03-17T04:10:15.166Z,26.60
2024-03-17T04:11:15.534Z,36.40
2024-03-17T04:12:15.916Z,28.90
2024-03-17T04:13:16.309Z,32.30
2024-03-17T04:14:17.469Z,32.60
2024-03-17T04:15:17.024Z,32.90
2024-03-17T04:16:17.385Z,29.20
2024-03-17T04:17:17.755Z,31.70
2024-03-17T04:18:18.120Z,27.20
2024-03-17T04:19:18.494Z,30.10
2024-03-17T04:20:18.858Z,31.60
2024-03-17T04:21:19.358Z,29.80
2024-03-17T04:22:19.623Z,30.00
2024-03-17T04:23:20.069Z,34.80
2024-03-17T04:24:20.451Z,33.80
2024-03-17T04:25:20.818Z,32.10
2024-03-17T04:26:21.184Z,33.80
2024-03-17T04:27:21.551Z,30.90
2024-03-17T04:28:21.924Z,29.40
2024-03-17T04:29:22.368Z,30.80
2024-03-17T04:30:22.670Z,34.20
2024-03-17T04:31:23.037Z,27.10
2024-03-17T04:32:23.439Z,28.90
2024-03-17T04:33:23.793Z,37.10
2024-03-17T04:34:24.175Z,35.10
2024-03-17T04:35:24.548Z,34.50
2024-03-17T04:36:24.924Z,31.60
2024-03-17T04:37:25.302Z,35.80
2024-03-17T04:38:25.687Z,32.10
2024-03-17T04:39:26.056Z,32.90
2024-03-17T04:40:26.422Z,26.10
2024-03-17T04:41:26.850Z,32.10
2024-03-17T04:42:27.227Z,27.90
2024-03-17T04:43:28.532Z,29.50
2024-03-17T04:44:27.998Z,37.90
2024-03-17T04:45:28.349Z,36.00
2024-03-17T04:46:28.713Z,41.30
2024-03-17T04:47:29.101Z,28.40
2024-03-17T04:48:29.535Z,31.20
2024-03-17T04:49:29.888Z,29.30
2024-03-17T04:50:30.246Z,33.30
2024-03-17T04:51:30.622Z,37.20
2024-03-17T04:52:30.985Z,35.10
2024-03-17T04:53:31.356Z,32.70
2024-03-17T04:54:35.278Z,32.90
2024-03-17T04:55:32.132Z,36.00
2024-03-17T04:56:32.496Z,33.40
2024-03-17T04:57:32.877Z,32.00
2024-03-17T04:58:33.254Z,34.70
2024-03-17T04:59:33.600Z,31.90
2024-03-17T05:00:33.971Z,31.70
2024-03-17T05:01:34.359Z,32.90
2024-03-17T05:02:34.831Z,36.90
2024-03-17T05:03:35.082Z,28.50
2024-03-17T05:04:35.431Z,34.10
2024-03-17T05:05:35.784Z,30.80
2024-03-17T05:06:36.124Z,32.40
2024-03-17T05:07:37.972Z,33.20
2024-03-17T05:08:36.868Z,33.00
2024-03-17T05:09:37.237Z,30.00
2024-03-17T05:10:37.594Z,30.20
2024-03-17T05:11:37.950Z,34.00
2024-03-17T05:12:38.481Z,31.50
2024-03-17T05:13:38.687Z,35.30
2024-03-17T05:14:39.067Z,33.00
2024-03-17T05:15:39.403Z,32.20
2024-03-17T05:16:39.772Z,32.20
2024-03-17T05:17:40.148Z,36.60
2024-03-17T05:18:40.529Z,31.40
2024-03-17T05:19:40.893Z,34.60
2024-03-17T05:20:41.275Z,35.90
2024-03-17T05:21:42.650Z,34.00
2024-03-17T05:22:42.005Z,33.70
2024-03-17T05:23:42.366Z,28.30
2024-03-17T05:24:42.720Z,32.60
2024-03-17T05:25:43.077Z,34.30
2024-03-17T05:26:43.469Z,31.10
2024-03-17T05:27:43.849Z,36.20
2024-03-17T05:28:44.214Z,31.20
2024-03-17T05:29:44.630Z,32.70
2024-03-17T05:30:45.006Z,31.70
2024-03-17T05:31:45.376Z,34.50
2024-03-17T05:32:45.747Z,31.70
2024-03-17T05:33:46.097Z,33.80
2024-03-17T05:34:46.461Z,28.10
2024-03-17T05:35:46.812Z,32.30
2024-03-17T05:36:47.186Z,29.50
2024-03-17T05:37:47.557Z,34.00
2024-03-17T05:38:47.929Z,32.90
2024-03-17T05:39:48.335Z,32.80
2024-03-17T05:40:48.692Z,30.90
2024-03-17T05:41:49.048Z,36.50
2024-03-17T05:42:49.481Z,30.10
2024-03-17T05:43:49.788Z,30.60
2024-03-17T05:44:50.152Z,28.00
2024-03-17T05:45:50.508Z,32.90
2024-03-17T05:46:50.886Z,32.30
2024-03-17T05:47:51.253Z,35.30
2024-03-17T05:48:51.603Z,35.90
2024-03-17T05:49:51.947Z,32.50
2024-03-17T05:50:52.289Z,44.60
2024-03-17T05:51:52.628Z,29.50
2024-03-17T05:52:53.004Z,33.60
2024-03-17T05:53:53.351Z,36.20
2024-03-17T05:54:53.719Z,29.10
2024-03-17T05:55:54.073Z,28.10
2024-03-17T05:56:54.427Z,39.10
2024-03-17T05:57:54.774Z,37.30
2024-03-17T05:58:55.138Z,33.60
2024-03-17T05:59:55.524Z,31.80
2024-03-17T06:00:55.888Z,31.00
2024-03-17T06:01:56.244Z,27.10
2024-03-17T06:02:56.624Z,32.00
2024-03-17T06:03:57.046Z,33.60
2024-03-17T06:04:57.384Z,31.40
2024-03-17T06:05:57.732Z,33.10
2024-03-17T06:06:58.091Z,33.00
2024-03-17T06:07:58.454Z,38.70
2024-03-17T06:08:58.801Z,33.80
2024-03-17T06:09:59.153Z,39.30
2024-03-17T06:10:59.520Z,36.90
2024-03-17T06:11:59.930Z,32.30
2024-03-17T06:13:00.240Z,39.70
2024-03-17T06:14:00.605Z,35.10
2024-03-17T06:15:00.967Z,35.30
2024-03-17T06:16:01.321Z,27.40
2024-03-17T06:17:01.685Z,33.60
2024-03-17T06:18:02.039Z,33.40
2024-03-17T06:19:02.392Z,33.90
2024-03-17T06:20:02.777Z,25.30
2024-03-17T06:21:03.122Z,28.10
2024-03-17T06:22:03.487Z,36.00
2024-03-17T06:23:03.843Z,31.20
2024-03-17T06:24:04.186Z,31.40
2024-03-17T06:25:04.558Z,34.60
2024-03-17T06:26:04.891Z,24.10
2024-03-17T06:27:05.259Z,34.80
2024-03-17T06:28:05.629Z,30.90
2024-03-17T06:29:05.984Z,27.10
2024-03-17T06:30:06.344Z,27.10
2024-03-17T06:31:06.687Z,26.70
2024-03-17T06:32:07.021Z,24.30
2024-03-17T06:33:07.408Z,33.60
2024-03-17T06:34:07.753Z,29.00
2024-03-17T06:35:08.108Z,33.20
2024-03-17T06:36:08.441Z,33.90
2024-03-17T06:37:08.816Z,27.30
2024-03-17T06:38:09.161Z,33.30
2024-03-17T06:39:09.493Z,28.10
2024-03-17T06:40:09.867Z,28.80
2024-03-17T06:41:10.238Z,27.20
2024-03-17T06:42:10.575Z,29.60
2024-03-17T06:43:10.950Z,29.40
2024-03-17T06:44:11.275Z,28.30
2024-03-17T06:45:11.649Z,26.40
2024-03-17T06:46:11.996Z,29.40
2024-03-17T06:47:12.327Z,32.90
2024-03-17T06:48:12.674Z,29.40
2024-03-17T06:49:13.019Z,26.90
2024-03-17T06:50:13.356Z,31.80
2024-03-17T06:51:13.700Z,31.80
2024-03-17T06:52:14.074Z,27.60
2024-03-17T06:53:14.377Z,30.10
2024-03-17T06:54:14.718Z,27.20
2024-03-17T06:55:15.093Z,29.70
2024-03-17T06:56:15.404Z,33.20
2024-03-17T06:57:15.757Z,30.90
2024-03-17T06:58:16.126Z,24.80
2024-03-17T06:59:16.460Z,34.70
2024-03-17T07:00:16.813Z,29.50
2024-03-17T07:01:17.166Z,26.20
2024-03-17T07:02:17.494Z,29.20
2024-03-17T07:03:17.832Z,28.10
2024-03-17T07:04:18.171Z,26.80
2024-03-17T07:05:18.499Z,23.20
2024-03-17T07:06:18.824Z,30.00
2024-03-17T07:07:19.156Z,29.30
2024-03-17T07:08:19.484Z,27.70
2024-03-17T07:09:19.802Z,27.10
2024-03-17T07:10:20.154Z,27.30
2024-03-17T07:11:20.482Z,32.50
2024-03-17T07:12:20.808Z,28.10
2024-03-17T07:13:21.148Z,28.40
2024-03-17T07:14:21.476Z,28.20
2024-03-17T07:15:21.814Z,26.50
2024-03-17T07:16:22.146Z,29.60
2024-03-17T07:17:22.479Z,29.10
2024-03-17T07:18:22.820Z,31.60
2024-03-17T07:19:23.150Z,27.10
2024-03-17T07:20:23.463Z,25.60
2024-03-17T07:21:23.790Z,25.70
2024-03-17T07:22:24.129Z,28.10
2024-03-17T07:23:24.447Z,26.80
2024-03-17T07:24:24.768Z,27.70
2024-03-17T07:25:25.104Z,22.80
2024-03-17T07:26:25.433Z,24.00
2024-03-17T07:27:25.768Z,26.50
2024-03-17T07:28:26.097Z,25.30
2024-03-17T07:29:26.411Z,28.80
2024-03-17T07:30:26.744Z,27.50
2024-03-17T07:31:27.055Z,27.10
2024-03-17T07:32:27.394Z,22.00
2024-03-17T07:33:27.660Z,30.30
2024-03-17T07:34:27.956Z,24.30
2024-03-17T07:35:28.245Z,25.90
2024-03-17T07:36:28.646Z,25.40
2024-03-17T07:37:28.919Z,24.00
2024-03-17T07:38:29.200Z,28.70
2024-03-17T07:39:29.569Z,25.10
2024-03-17T07:40:29.835Z,27.90
2024-03-17T07:41:30.177Z,27.70
2024-03-17T07:42:30.564Z,25.00
2024-03-17T07:43:30.825Z,23.90
2024-03-17T07:44:31.130Z,30.20
2024-03-17T07:45:31.379Z,27.50
2024-03-17T07:46:31.754Z,23.30
2024-03-17T07:47:32.025Z,21.80
2024-03-17T07:48:32.400Z,29.20
2024-03-17T07:49:32.656Z,25.50
2024-03-17T07:50:33.025Z,29.60
2024-03-17T07:51:33.399Z,30.60
2024-03-17T07:52:33.784Z,26.10
2024-03-17T07:53:34.039Z,21.90
2024-03-17T07:54:34.451Z,25.40
2024-03-17T07:55:34.784Z,22.20
2024-03-17T07:56:35.150Z,25.60
2024-03-17T07:57:35.552Z,25.80
2024-03-17T07:58:35.807Z,25.10
2024-03-17T07:59:36.179Z,29.20
2024-03-17T08:00:36.552Z,24.20
2024-03-17T08:01:36.887Z,22.80
2024-03-17T08:02:37.261Z,25.80
2024-03-17T08:03:37.470Z,27.00
2024-03-17T08:04:37.780Z,22.40
2024-03-17T08:05:38.179Z,23.70
2024-03-17T08:06:38.393Z,26.70
2024-03-17T08:07:38.726Z,20.50
2024-03-17T08:08:39.038Z,22.40
2024-03-17T08:09:39.350Z,24.30
2024-03-17T08:10:39.694Z,23.80
2024-03-17T08:11:39.951Z,30.50
2024-03-17T08:12:40.259Z,20.70
2024-03-17T08:13:40.536Z,22.40
2024-03-17T08:14:40.843Z,24.50
2024-03-17T08:15:41.114Z,21.30
2024-03-17T08:16:41.393Z,19.70
2024-03-17T08:17:41.676Z,22.70
2024-03-17T08:18:41.938Z,23.60
2024-03-17T08:19:42.222Z,22.50
2024-03-17T08:20:42.510Z,20.40
2024-03-17T08:21:42.770Z,21.00
2024-03-17T08:22:43.025Z,21.90
2024-03-17T08:23:43.262Z,20.60
2024-03-17T08:24:43.494Z,22.10
2024-03-17T08:25:43.708Z,24.50
2024-03-17T08:26:44.009Z,17.80
2024-03-17T08:27:44.167Z,17.20
2024-03-17T08:28:44.373Z,16.80
2024-03-17T08:29:44.611Z,21.70
2024-03-17T08:30:44.821Z,19.60
2024-03-17T08:31:45.020Z,19.80
2024-03-17T08:32:45.261Z,23.70
2024-03-17T08:33:45.462Z,17.90
2024-03-17T08:34:45.662Z,17.00
2024-03-17T08:35:45.835Z,20.80
2024-03-17T08:36:46.043Z,22.70
2024-03-17T08:37:46.264Z,17.10
2024-03-17T08:38:46.481Z,15.30
2024-03-17T08:39:46.663Z,13.00
2024-03-17T08:40:46.864Z,17.50
2024-03-17T08:41:47.065Z,17.50
2024-03-17T08:42:47.268Z,18.50
2024-03-17T08:43:47.465Z,21.00
2024-03-17T08:44:47.666Z,20.50
2024-03-17T08:45:52.917Z,17.40
2024-03-17T08:46:49.026Z,19.00
2024-03-17T08:47:48.235Z,19.20
2024-03-17T08:48:48.448Z,19.90
2024-03-17T08:49:48.665Z,19.70
2024-03-17T08:50:48.968Z,19.00
2024-03-17T08:51:49.165Z,19.50
2024-03-17T08:52:49.386Z,17.10
2024-03-17T08:53:49.585Z,18.50
2024-03-17T08:54:49.881Z,23.50
2024-03-17T08:55:50.102Z,16.90
2024-03-17T08:56:50.324Z,17.70
2024-03-17T08:57:50.552Z,20.00
2024-03-17T08:58:50.770Z,18.20
2024-03-17T08:59:50.966Z,13.10
2024-03-17T09:00:51.290Z,18.60
2024-03-17T09:01:51.499Z,16.10
2024-03-17T09:02:51.835Z,16.00
2024-03-17T09:03:52.027Z,14.80
2024-03-17T09:04:52.238Z,17.00
2024-03-17T09:05:52.449Z,17.10
2024-03-17T09:06:52.784Z,16.50
2024-03-17T09:07:53.027Z,17.10
2024-03-17T09:08:53.258Z,21.80
2024-03-17T09:09:53.480Z,17.80
2024-03-17T09:10:53.832Z,15.20
2024-03-17T09:11:54.027Z,17.20
2024-03-17T09:12:54.277Z,15.50
2024-03-17T09:13:54.519Z,20.60
2024-03-17T09:14:54.745Z,14.90
2024-03-17T09:15:54.956Z,13.40
2024-03-17T09:16:55.191Z,13.60
2024-03-17T09:17:55.421Z,13.80
2024-03-17T09:18:55.646Z,15.40
2024-03-17T09:19:55.859Z,19.10
2024-03-17T09:20:56.091Z,17.30
2024-03-17T09:21:56.319Z,20.50
2024-03-17T09:22:56.553Z,16.90
2024-03-17T09:23:56.781Z,15.20
2024-03-17T09:24:57.097Z,13.70
2024-03-17T09:25:57.326Z,17.00
2024-03-17T09:26:57.576Z,17.30
2024-03-17T09:27:57.824Z,14.60
2024-03-17T09:28:58.072Z,17.10
2024-03-17T09:29:58.297Z,16.30
2024-03-17T09:30:58.632Z,14.00
2024-03-17T09:31:58.843Z,14.70
2024-03-17T09:32:59.189Z,18.40
2024-03-17T09:33:59.416Z,14.90
2024-03-17T09:34:59.645Z,15.50
2024-03-17T09:35:59.873Z,15.50
2024-03-17T09:37:00.140Z,19.50
2024-03-17T09:38:00.377Z,15.70
2024-03-17T09:39:00.565Z,16.00
2024-03-17T09:40:00.793Z,20.00
2024-03-17T09:41:01.027Z,14.90
2024-03-17T09:42:01.271Z,15.20
2024-03-17T09:43:03.521Z,16.60
2024-03-17T09:44:01.817Z,15.20
2024-03-17T09:45:02.066Z,14.70
2024-03-17T09:46:02.340Z,14.10
2024-03-17T09:47:02.647Z,13.20
2024-03-17T09:48:02.923Z,13.70
2024-03-17T09:49:03.221Z,15.90
2024-03-17T09:50:03.516Z,17.80
2024-03-17T09:51:03.824Z,14.90
2024-03-17T09:52:04.067Z,11.00
2024-03-17T09:53:04.353Z,11.40
2024-03-17T09:54:04.610Z,10.30
2024-03-17T09:55:04.878Z,14.40
2024-03-17T09:56:05.084Z,12.80
2024-03-17T09:57:05.322Z,13.10
2024-03-17T09:58:05.575Z,10.90
2024-03-17T09:59:05.792Z,12.70
2024-03-17T10:00:06.018Z,12.00
2024-03-17T10:01:06.214Z,12.70
2024-03-17T10:02:06.416Z,12.30
2024-03-17T10:03:06.642Z,17.10
2024-03-17T10:04:06.845Z,14.30
2024-03-17T10:05:07.059Z,12.00
2024-03-17T10:06:07.256Z,13.60
2024-03-17T10:07:07.568Z,12.70
2024-03-17T10:08:07.810Z,9.90
2024-03-17T10:09:08.022Z,11.50
2024-03-17T10:10:08.259Z,10.20
2024-03-17T10:11:08.486Z,11.40
2024-03-17T10:12:08.780Z,11.00
2024-03-17T10:13:09.036Z,9.90
2024-03-17T10:14:09.263Z,11.30
2024-03-17T10:15:09.994Z,13.00
2024-03-17T10:16:09.771Z,14.60
2024-03-17T10:17:10.003Z,12.10
2024-03-17T10:18:10.241Z,11.70
2024-03-17T10:19:10.474Z,14.00
2024-03-17T10:20:10.681Z,10.30
2024-03-17T10:21:10.912Z,10.40
2024-03-17T10:22:11.109Z,11.00
2024-03-17T10:23:11.380Z,12.40
2024-03-17T10:24:11.580Z,11.90
2024-03-17T10:25:11.874Z,10.90
2024-03-17T10:26:12.082Z,10.50
2024-03-17T10:27:12.323Z,10.10
2024-03-17T10:28:12.519Z,11.40
2024-03-17T10:29:12.728Z,15.10
2024-03-17T10:30:12.930Z,10.00
2024-03-17T10:31:13.259Z,10.70
2024-03-17T10:32:13.467Z,13.50
2024-03-17T10:33:13.705Z,13.40
2024-03-17T10:34:20.550Z,11.30
2024-03-17T10:35:15.200Z,11.10
2024-03-17T10:36:14.432Z,11.80
2024-03-17T10:37:14.725Z,14.20
2024-03-17T10:38:14.951Z,12.60
2024-03-17T10:39:15.206Z,14.30
2024-03-17T10:40:15.452Z,15.10
2024-03-17T10:41:15.760Z,15.20
2024-03-17T10:42:16.038Z,13.10
2024-03-17T10:43:16.355Z,12.00
2024-03-17T10:44:16.623Z,10.80
2024-03-17T10:45:16.907Z,12.50
2024-03-17T10:46:17.192Z,12.60
2024-03-17T10:47:17.457Z,16.00
2024-03-17T10:48:17.748Z,12.80
2024-03-17T10:49:18.031Z,11.10
2024-03-17T10:50:18.329Z,13.20
2024-03-17T10:51:18.624Z,13.20
2024-03-17T10:52:18.950Z,14.50
2024-03-17T10:53:19.236Z,13.30
2024-03-17T10:54:19.543Z,10.10
2024-03-17T10:55:19.884Z,12.60
2024-03-17T10:56:20.182Z,9.60
2024-03-17T10:57:20.464Z,9.40
2024-03-17T10:58:20.752Z,9.30
2024-03-17T10:59:20.996Z,11.80
2024-03-17T11:00:21.267Z,10.30
2024-03-17T11:01:21.538Z,11.90
2024-03-17T11:02:21.763Z,11.50
2024-03-17T11:03:22.005Z,9.70
2024-03-17T11:04:22.250Z,10.60
2024-03-17T11:05:22.428Z,8.40
2024-03-17T11:06:22.666Z,10.30
2024-03-17T11:07:22.915Z,11.60
2024-03-17T11:08:32.077Z,10.90
2024-03-17T11:09:24.318Z,8.20
2024-03-17T11:10:23.563Z,9.00
2024-03-17T11:11:23.747Z,9.50
2024-03-17T11:12:26.179Z,9.60
2024-03-17T11:13:24.175Z,11.00
2024-03-17T11:14:24.338Z,13.90
2024-03-17T11:15:24.543Z,13.00
2024-03-17T11:16:24.723Z,11.20
2024-03-17T11:17:24.933Z,12.30
2024-03-17T11:18:25.220Z,10.00
2024-03-17T11:19:25.318Z,12.40
2024-03-17T11:20:25.496Z,11.20
2024-03-17T11:21:25.686Z,16.20
2024-03-17T11:22:25.904Z,12.50
2024-03-17T11:23:28.334Z,16.50
2024-03-17T11:24:26.356Z,14.10
2024-03-17T11:25:26.586Z,15.40
2024-03-17T11:26:26.790Z,11.80
2024-03-17T11:27:27.004Z,11.60
2024-03-17T11:28:27.234Z,10.60
2024-03-17T11:29:27.457Z,10.90
2024-03-17T11:30:27.687Z,9.40
2024-03-17T11:31:27.917Z,13.50
2024-03-17T11:32:28.170Z,11.40
2024-03-17T11:33:28.366Z,9.60
2024-03-17T11:34:28.571Z,11.60
2024-03-17T11:35:28.778Z,13.40
2024-03-17T11:36:28.987Z,14.10
2024-03-17T11:37:29.197Z,10.30
2024-03-17T11:38:29.423Z,9.00
2024-03-17T11:39:29.664Z,8.50
2024-03-17T11:40:29.858Z,9.00
2024-03-17T11:41:30.037Z,11.80
2024-03-17T11:42:30.234Z,11.70
2024-03-17T11:43:30.533Z,11.40
2024-03-17T11:44:30.688Z,12.30
2024-03-17T11:45:30.988Z,9.00
2024-03-17T11:46:31.181Z,9.40
2024-03-17T11:47:31.337Z,10.90
2024-03-17T11:48:31.649Z,11.30
2024-03-17T11:49:31.870Z,12.90
2024-03-17T11:50:32.084Z,11.50
2024-03-17T11:51:32.299Z,11.80
2024-03-17T11:52:32.505Z,8.30
2024-03-17T11:53:32.757Z,9.20
2024-03-17T11:54:32.955Z,9.60
2024-03-17T11:55:33.148Z,9.80
2024-03-17T11:56:33.479Z,10.40
2024-03-17T11:57:33.686Z,9.20
2024-03-17T11:58:33.936Z,11.30
2024-03-17T11:59:34.113Z,10.70
2024-03-17T12:00:35.285Z,10.30
2024-03-17T12:01:34.585Z,11.60
2024-03-17T12:02:34.788Z,12.00
2024-03-17T12:03:35.013Z,10.90
2024-03-17T12:04:35.222Z,11.30
2024-03-17T12:05:35.413Z,12.10
2024-03-17T12:06:35.626Z,10.90
2024-03-17T12:07:35.855Z,12.90
2024-03-17T12:08:36.077Z,11.50
2024-03-17T12:09:36.296Z,13.30
2024-03-17T12:10:36.514Z,11.80
2024-03-17T12:11:36.741Z,10.90
2024-03-17T12:12:36.924Z,11.30
2024-03-17T12:13:37.143Z,11.30
2024-03-17T12:14:37.380Z,11.60
2024-03-17T12:15:37.667Z,13.80
2024-03-17T12:16:38.005Z,12.10
2024-03-17T12:17:38.236Z,10.20
2024-03-17T12:18:38.472Z,13.50
2024-03-17T12:19:45.744Z,12.10
2024-03-17T12:20:41.644Z,9.20
2024-03-17T12:21:40.829Z,11.20
2024-03-17T12:22:39.506Z,12.00
2024-03-17T12:23:39.753Z,9.90
2024-03-17T12:24:40.040Z,10.80
2024-03-17T12:25:40.272Z,11.50
2024-03-17T12:26:40.529Z,10.40
2024-03-17T12:27:40.789Z,11.00
2024-03-17T12:28:41.056Z,12.40
2024-03-17T12:29:41.354Z,15.00
2024-03-17T12:30:41.649Z,12.40
2024-03-17T12:31:42.052Z,9.90
2024-03-17T12:32:42.305Z,10.80
2024-03-17T12:33:42.606Z,10.00
2024-03-17T12:34:42.915Z,9.50
2024-03-17T12:35:43.207Z,18.90
2024-03-17T12:36:43.518Z,13.30
2024-03-17T12:37:43.821Z,10.10
2024-03-17T12:38:44.130Z,9.60
2024-03-17T12:39:44.452Z,8.40
2024-03-17T12:40:44.786Z,9.00
2024-03-17T12:41:45.073Z,9.30
2024-03-17T12:42:45.387Z,7.10
2024-03-17T12:43:45.693Z,10.00
2024-03-17T12:44:46.022Z,9.20
2024-03-17T12:45:46.332Z,6.10
2024-03-17T12:46:46.622Z,7.80
2024-03-17T12:47:46.906Z,8.70
2024-03-17T12:48:47.176Z,7.70
2024-03-17T12:49:47.472Z,8.00
2024-03-17T12:50:47.730Z,7.90
2024-03-17T12:51:47.966Z,9.50
2024-03-17T12:52:48.229Z,9.30
2024-03-17T12:53:48.474Z,10.40
2024-03-17T12:54:48.734Z,11.30
2024-03-17T12:55:48.970Z,8.00
2024-03-17T12:56:49.213Z,7.90
2024-03-17T12:57:49.440Z,8.90
2024-03-17T12:58:49.682Z,8.40
2024-03-17T12:59:49.924Z,8.00